Time;durP1;ratioP1;P1;durP2;ratioP2;P2;SDS_P1;SDS_P2;PMS_P1;PMS_P2;Temp;Humidity;BMP_temperature;BMP_pressure;BME280_temperature;BME280_humidity;BME280_pressure;Samples;Min_cycle;Max_cycle;Signal;HPM_P1;HPM_P2
2023/12/23 00:00:09;;;;;;;2.92;0.90;;;;;;;;;;5006887;28;20501;-70
2023/12/23 00:02:36;;;;;;;5.97;1.40;;;;;;;;;;5009791;28;20428;-71
2023/12/23 00:05:03;;;;;;;4.85;1.02;;;;;;;;;;5007372;28;20416;-70
2023/12/23 00:07:30;;;;;;;2.67;1.17;;;;;;;;;;5006584;28;20899;-71
2023/12/23 00:09:57;;;;;;;3.70;1.08;;;;;;;;;;5007598;28;20864;-70
2023/12/23 00:12:26;;;;;;;6.15;1.20;;;;;;;;;;5009480;28;20417;-70
2023/12/23 00:14:53;;;;;;;3.03;1.60;;;;;;;;;;5007114;28;20436;-69
2023/12/23 00:17:20;;;;;;;3.20;0.90;;;;;;;;;;5009237;28;20432;-72
2023/12/23 00:19:47;;;;;;;3.47;0.93;;;;;;;;;;5007188;28;20439;-69
2023/12/23 00:22:14;;;;;;;3.47;1.00;;;;;;;;;;5007049;28;20467;-72
2023/12/23 00:24:41;;;;;;;4.30;1.10;;;;;;;;;;5009400;28;20423;-70
2023/12/23 00:27:09;;;;;;;2.95;0.90;;;;;;;;;;5006387;28;20439;-70
2023/12/23 00:29:37;;;;;;;4.47;1.10;;;;;;;;;;5009944;28;20420;-70
2023/12/23 00:32:05;;;;;;;3.58;1.02;;;;;;;;;;5009580;28;20926;-71
2023/12/23 00:34:32;;;;;;;4.88;0.90;;;;;;;;;;5009424;28;20942;-70
2023/12/23 00:36:59;;;;;;;5.80;2.10;;;;;;;;;;5010097;28;20428;-70
2023/12/23 00:39:26;;;;;;;3.90;0.90;;;;;;;;;;5012686;28;20455;-70
2023/12/23 00:41:53;;;;;;;4.25;1.30;;;;;;;;;;5016696;28;20485;-71
2023/12/23 00:44:20;;;;;;;7.78;1.20;;;;;;;;;;5010586;28;20440;-71
2023/12/23 00:46:49;;;;;;;2.38;0.70;;;;;;;;;;5008579;28;20436;-70
2023/12/23 00:49:16;;;;;;;3.20;1.00;;;;;;;;;;5011333;28;20416;-70
2023/12/23 00:51:43;;;;;;;2.17;0.70;;;;;;;;;;5011238;28;20424;-70
2023/12/23 00:54:10;;;;;;;3.63;0.90;;;;;;;;;;5013288;28;20416;-71
2023/12/23 00:56:37;;;;;;;3.40;0.80;;;;;;;;;;5012881;28;20486;-70
2023/12/23 00:59:04;;;;;;;1.92;0.70;;;;;;;;;;5012074;28;20791;-70
2023/12/23 01:01:31;;;;;;;2.90;0.90;;;;;;;;;;5010390;28;21268;-71
2023/12/23 01:04:00;;;;;;;4.35;0.85;;;;;;;;;;5015585;28;20700;-71
2023/12/23 01:06:27;;;;;;;3.38;1.10;;;;;;;;;;5016854;28;20447;-70
2023/12/23 01:08:54;;;;;;;3.20;0.90;;;;;;;;;;5008179;28;20424;-69
2023/12/23 01:11:21;;;;;;;3.03;0.90;;;;;;;;;;5015691;28;20424;-70
2023/12/23 01:13:48;;;;;;;2.28;0.85;;;;;;;;;;5019189;28;20419;-70
2023/12/23 01:16:15;;;;;;;4.20;1.00;;;;;;;;;;5012576;28;20439;-70
2023/12/23 01:18:42;;;;;;;3.30;1.20;;;;;;;;;;5013796;28;20432;-70
2023/12/23 01:21:10;;;;;;;3.70;1.17;;;;;;;;;;5009787;28;20900;-70
2023/12/23 01:23:37;;;;;;;4.07;1.00;;;;;;;;;;5017214;28;20418;-70
2023/12/23 01:26:05;;;;;;;2.88;0.80;;;;;;;;;;5015958;28;20452;-72
2023/12/23 01:28:32;;;;;;;3.80;0.95;;;;;;;;;;5010333;28;20416;-70
2023/12/23 01:30:59;;;;;;;4.72;1.30;;;;;;;;;;5009438;28;20440;-71
2023/12/23 01:33:26;;;;;;;4.68;1.25;;;;;;;;;;5014136;28;20769;-70
2023/12/23 01:35:53;;;;;;;3.92;0.90;;;;;;;;;;5012538;28;20903;-70
2023/12/23 01:38:21;;;;;;;4.65;1.00;;;;;;;;;;5013518;28;20429;-70
2023/12/23 01:40:48;;;;;;;5.15;1.30;;;;;;;;;;5033784;22;20439;-70
2023/12/23 01:43:15;;;;;;;4.25;1.80;;;;;;;;;;5021049;28;20434;-70
2023/12/23 01:45:43;;;;;;;4.85;1.40;;;;;;;;;;5022273;28;20446;-70
2023/12/23 01:48:11;;;;;;;3.60;1.10;;;;;;;;;;5013469;28;20431;-70
2023/12/23 01:50:38;;;;;;;5.60;1.20;;;;;;;;;;5020165;28;20510;-70
2023/12/23 01:53:05;;;;;;;2.08;0.95;;;;;;;;;;5022601;28;20411;-70
2023/12/23 01:55:34;;;;;;;5.07;1.20;;;;;;;;;;5025985;28;20443;-70
2023/12/23 01:58:02;;;;;;;3.10;1.10;;;;;;;;;;5021589;28;20430;-71
2023/12/23 02:00:29;;;;;;;3.77;1.00;;;;;;;;;;5026816;28;20893;-71
2023/12/23 02:02:57;;;;;;;4.22;1.70;;;;;;;;;;5026999;28;20422;-69
2023/12/23 02:05:24;;;;;;;5.43;1.88;;;;;;;;;;5030906;28;20426;-68
2023/12/23 02:07:52;;;;;;;4.20;1.70;;;;;;;;;;5027297;28;20421;-68
2023/12/23 02:10:19;;;;;;;3.97;1.50;;;;;;;;;;5024502;28;20615;-68
2023/12/23 02:13:09;;;;;;;5.15;1.50;;;;;;;;;;5026136;28;20454;-69
2023/12/23 02:15:38;;;;;;;5.40;1.70;;;;;;;;;;5024530;28;20562;-68
2023/12/23 02:18:05;;;;;;;6.53;2.70;;;;;;;;;;5025514;28;20534;-68
2023/12/23 02:20:32;;;;;;;4.72;1.52;;;;;;;;;;5027243;28;20418;-69
2023/12/23 02:23:00;;;;;;;5.10;2.00;;;;;;;;;;5025356;28;20430;-69
2023/12/23 02:25:27;;;;;;;6.80;1.90;;;;;;;;;;5030808;28;20450;-69
2023/12/23 02:27:55;;;;;;;4.57;1.95;;;;;;;;;;5019915;28;20431;-69
2023/12/23 02:30:24;;;;;;;5.00;1.70;;;;;;;;;;5023946;28;20408;-69
2023/12/23 02:32:51;;;;;;;5.30;1.70;;;;;;;;;;5024459;28;20422;-69
2023/12/23 02:35:18;;;;;;;2.60;1.40;;;;;;;;;;5023540;28;20422;-70
2023/12/23 02:37:46;;;;;;;5.32;2.08;;;;;;;;;;5024926;28;20438;-69
2023/12/23 02:40:14;;;;;;;4.13;1.90;;;;;;;;;;4962284;28;1789222;-69
2023/12/23 02:42:41;;;;;;;3.85;1.77;;;;;;;;;;5028811;28;20413;-68
2023/12/23 02:45:09;;;;;;;5.60;2.30;;;;;;;;;;5026353;28;20467;-71
2023/12/23 02:47:36;;;;;;;8.60;2.40;;;;;;;;;;5024883;28;20439;-69
2023/12/23 02:50:03;;;;;;;6.60;2.80;;;;;;;;;;5022646;28;20419;-70
2023/12/23 02:52:30;;;;;;;8.27;2.80;;;;;;;;;;5021179;28;20892;-68
2023/12/23 02:54:57;;;;;;;7.95;2.50;;;;;;;;;;5029263;28;20532;-69
2023/12/23 02:57:26;;;;;;;6.85;3.20;;;;;;;;;;5025315;28;20422;-69
2023/12/23 02:59:53;;;;;;;5.72;2.60;;;;;;;;;;5026018;28;20413;-69
2023/12/23 03:02:20;;;;;;;4.63;2.60;;;;;;;;;;5022859;28;20461;-69
2023/12/23 03:04:47;;;;;;;7.07;3.90;;;;;;;;;;5029016;28;20703;-70
2023/12/23 03:07:14;;;;;;;8.70;3.67;;;;;;;;;;5031513;28;20419;-71
2023/12/23 03:09:41;;;;;;;7.32;3.90;;;;;;;;;;5033712;28;20762;-70
2023/12/23 03:12:08;;;;;;;5.85;4.35;;;;;;;;;;5027463;28;20446;-69
2023/12/23 03:14:37;;;;;;;7.28;4.55;;;;;;;;;;5036872;28;20436;-69
2023/12/23 03:17:04;;;;;;;7.50;5.65;;;;;;;;;;5031694;28;20439;-69
2023/12/23 03:19:31;;;;;;;9.73;6.00;;;;;;;;;;5043537;28;20568;-69
2023/12/23 03:21:58;;;;;;;8.50;5.80;;;;;;;;;;5034171;28;20439;-69
2023/12/23 03:24:25;;;;;;;9.82;6.50;;;;;;;;;;5034401;28;20425;-69
2023/12/23 03:26:52;;;;;;;12.68;7.18;;;;;;;;;;5030105;28;20439;-69
2023/12/23 03:29:19;;;;;;;9.63;7.25;;;;;;;;;;5031015;28;20421;-69
2023/12/23 03:31:47;;;;;;;10.82;6.90;;;;;;;;;;5033039;28;20438;-69
2023/12/23 03:34:14;;;;;;;7.97;6.60;;;;;;;;;;5017697;28;20418;-69
2023/12/23 03:36:42;;;;;;;10.18;6.45;;;;;;;;;;5038724;28;20417;-70
2023/12/23 03:39:09;;;;;;;8.90;6.40;;;;;;;;;;5037603;28;20774;-70
2023/12/23 03:41:36;;;;;;;9.18;6.70;;;;;;;;;;5032904;28;21155;-69
2023/12/23 03:44:03;;;;;;;7.40;6.60;;;;;;;;;;5042368;28;20417;-69
2023/12/23 03:46:30;;;;;;;10.75;6.63;;;;;;;;;;5035069;28;20454;-69
2023/12/23 03:48:59;;;;;;;9.00;6.50;;;;;;;;;;5036741;28;20419;-69
2023/12/23 03:51:26;;;;;;;7.53;5.95;;;;;;;;;;5035698;28;20418;-69
2023/12/23 03:53:53;;;;;;;9.30;6.47;;;;;;;;;;5043423;28;20497;-70
2023/12/23 03:56:20;;;;;;;8.82;7.07;;;;;;;;;;5028118;28;20511;-70
2023/12/23 03:58:47;;;;;;;9.32;7.00;;;;;;;;;;5023416;28;20426;-70
2023/12/23 04:01:15;;;;;;;11.35;6.85;;;;;;;;;;5026695;28;20419;-70
2023/12/23 04:03:42;;;;;;;7.80;6.40;;;;;;;;;;5023080;28;20955;-69
2023/12/23 04:06:11;;;;;;;9.07;6.63;;;;;;;;;;5021563;28;20429;-70
2023/12/23 04:08:38;;;;;;;11.25;7.00;;;;;;;;;;5026309;28;20419;-70
2023/12/23 04:11:05;;;;;;;8.35;6.60;;;;;;;;;;5021448;28;20434;-69
2023/12/23 04:13:32;;;;;;;10.68;6.80;;;;;;;;;;5022241;28;20419;-70
2023/12/23 04:15:59;;;;;;;9.60;6.78;;;;;;;;;;5021217;28;20419;-70
2023/12/23 04:18:26;;;;;;;8.70;7.17;;;;;;;;;;5017237;28;20515;-70
2023/12/23 04:20:53;;;;;;;10.20;6.85;;;;;;;;;;5018866;28;20451;-70
2023/12/23 04:23:22;;;;;;;8.40;7.00;;;;;;;;;;5027455;28;20434;-70
2023/12/23 04:25:49;;;;;;;8.70;6.45;;;;;;;;;;5025307;28;20431;-70
2023/12/23 04:28:24;;;;;;;9.50;6.20;;;;;;;;;;5013486;28;20437;-69
2023/12/23 04:30:53;;;;;;;12.18;6.55;;;;;;;;;;5022886;28;20881;-70
2023/12/23 04:33:20;;;;;;;10.40;6.40;;;;;;;;;;5022954;28;20439;-70
2023/12/23 04:35:48;;;;;;;8.80;6.15;;;;;;;;;;5029924;28;20411;-70
2023/12/23 04:38:15;;;;;;;9.68;5.50;;;;;;;;;;5025381;28;20435;-69
2023/12/23 04:40:43;;;;;;;8.17;5.73;;;;;;;;;;5020884;28;20430;-70
2023/12/23 04:43:10;;;;;;;7.97;4.72;;;;;;;;;;5019529;28;20660;-70
2023/12/23 04:45:37;;;;;;;6.50;4.68;;;;;;;;;;5029720;28;20421;-70
2023/12/23 04:48:04;;;;;;;6.80;4.22;;;;;;;;;;5019516;28;20514;-70
2023/12/23 04:50:31;;;;;;;10.35;5.00;;;;;;;;;;5020658;28;20790;-71
2023/12/23 04:52:58;;;;;;;8.13;4.80;;;;;;;;;;5020716;28;20793;-69
2023/12/23 04:55:25;;;;;;;5.63;4.10;;;;;;;;;;5029603;28;20418;-69
2023/12/23 04:57:54;;;;;;;6.70;4.07;;;;;;;;;;5020169;28;20763;-70
2023/12/23 05:00:21;;;;;;;8.23;3.60;;;;;;;;;;5023724;28;20435;-69
2023/12/23 05:02:48;;;;;;;7.65;3.35;;;;;;;;;;5020530;28;20439;-70
2023/12/23 05:05:15;;;;;;;6.53;3.45;;;;;;;;;;5030159;28;20414;-69
2023/12/23 05:07:42;;;;;;;6.20;3.90;;;;;;;;;;5021049;28;20462;-69
2023/12/23 05:10:10;;;;;;;5.45;3.10;;;;;;;;;;5026552;28;20415;-69
2023/12/23 05:12:37;;;;;;;7.47;3.60;;;;;;;;;;5022038;28;20816;-69
2023/12/23 05:15:06;;;;;;;8.18;3.10;;;;;;;;;;5019838;28;20891;-70
2023/12/23 05:17:33;;;;;;;5.88;3.03;;;;;;;;;;5023724;28;20913;-69
2023/12/23 05:20:00;;;;;;;5.75;3.10;;;;;;;;;;5026296;28;20434;-69
2023/12/23 05:22:27;;;;;;;8.48;4.25;;;;;;;;;;5022888;28;20491;-69
2023/12/23 05:24:54;;;;;;;9.65;3.15;;;;;;;;;;5030093;28;20458;-70
2023/12/23 05:27:22;;;;;;;6.75;3.00;;;;;;;;;;5025660;28;20762;-69
2023/12/23 05:29:49;;;;;;;6.90;3.15;;;;;;;;;;5024642;28;20484;-69
2023/12/23 05:32:18;;;;;;;8.60;3.03;;;;;;;;;;5033059;28;20419;-70
2023/12/23 05:34:45;;;;;;;5.70;3.00;;;;;;;;;;5026778;28;20442;-69
2023/12/23 05:37:12;;;;;;;7.10;3.15;;;;;;;;;;5023288;28;20450;-70
2023/12/23 05:39:40;;;;;;;6.25;3.17;;;;;;;;;;5024668;28;20457;-70
2023/12/23 05:42:07;;;;;;;7.05;3.20;;;;;;;;;;5022740;28;21052;-70
2023/12/23 05:44:35;;;;;;;4.82;2.80;;;;;;;;;;5024301;28;20781;-70
2023/12/23 05:47:02;;;;;;;7.93;3.00;;;;;;;;;;5024042;28;20426;-70
2023/12/23 05:49:30;;;;;;;6.63;3.20;;;;;;;;;;5025472;28;20431;-69
2023/12/23 05:51:57;;;;;;;7.15;3.00;;;;;;;;;;5028568;28;20417;-70
2023/12/23 05:54:24;;;;;;;5.93;3.40;;;;;;;;;;5031187;28;20492;-70
2023/12/23 05:56:51;;;;;;;6.25;3.63;;;;;;;;;;5027916;28;21205;-70
2023/12/23 05:59:18;;;;;;;8.77;2.95;;;;;;;;;;5026928;28;20919;-70
2023/12/23 06:01:45;;;;;;;5.57;2.90;;;;;;;;;;5024717;28;20693;-69
2023/12/23 06:04:12;;;;;;;8.18;3.90;;;;;;;;;;5031941;28;20435;-70
2023/12/23 06:06:41;;;;;;;6.60;3.00;;;;;;;;;;5027063;28;20426;-70
2023/12/23 06:09:08;;;;;;;6.53;3.50;;;;;;;;;;5024632;28;20411;-70
2023/12/23 06:11:36;;;;;;;4.88;3.10;;;;;;;;;;5030115;28;20487;-69
2023/12/23 06:14:03;;;;;;;6.00;3.00;;;;;;;;;;5022705;28;20458;-70
2023/12/23 06:16:30;;;;;;;8.82;3.33;;;;;;;;;;5025251;28;20438;-70
2023/12/23 06:18:57;;;;;;;6.93;3.10;;;;;;;;;;5024975;28;20435;-70
2023/12/23 06:21:24;;;;;;;5.20;2.90;;;;;;;;;;5030379;28;20442;-69
2023/12/23 06:23:53;;;;;;;6.90;3.00;;;;;;;;;;5024602;28;20743;-70
2023/12/23 06:26:20;;;;;;;9.32;3.58;;;;;;;;;;5022570;28;20505;-70
2023/12/23 06:28:47;;;;;;;4.88;2.95;;;;;;;;;;5028607;28;20474;-70
2023/12/23 06:31:14;;;;;;;7.60;3.50;;;;;;;;;;5026685;28;20498;-69
2023/12/23 06:33:41;;;;;;;5.78;3.22;;;;;;;;;;5024930;28;20520;-71
2023/12/23 06:36:09;;;;;;;8.43;3.50;;;;;;;;;;5024085;28;20486;-70
2023/12/23 06:38:36;;;;;;;6.82;3.40;;;;;;;;;;5024575;28;20475;-70
2023/12/23 06:41:05;;;;;;;7.95;3.90;;;;;;;;;;5027561;28;20468;-70
2023/12/23 06:43:32;;;;;;;5.72;3.92;;;;;;;;;;5023222;28;20445;-70
2023/12/23 06:45:59;;;;;;;8.03;3.80;;;;;;;;;;5024633;28;20494;-70
2023/12/23 06:48:26;;;;;;;5.68;3.90;;;;;;;;;;5027149;28;20789;-70
2023/12/23 06:50:53;;;;;;;5.05;3.50;;;;;;;;;;5022869;28;20461;-70
2023/12/23 06:53:20;;;;;;;5.75;3.53;;;;;;;;;;5016977;28;20411;-70
2023/12/23 06:55:47;;;;;;;5.15;4.00;;;;;;;;;;5026579;28;20858;-70
2023/12/23 06:58:15;;;;;;;8.75;4.30;;;;;;;;;;5023924;28;20434;-70
2023/12/23 07:00:42;;;;;;;7.00;4.10;;;;;;;;;;5023243;28;20838;-69
2023/12/23 07:03:10;;;;;;;4.53;3.33;;;;;;;;;;5025106;28;20415;-70
2023/12/23 07:05:37;;;;;;;6.65;3.85;;;;;;;;;;5024634;28;20776;-70
2023/12/23 07:08:04;;;;;;;5.43;3.63;;;;;;;;;;5024180;28;20422;-70
2023/12/23 07:10:31;;;;;;;6.38;3.90;;;;;;;;;;5031120;28;20422;-70
2023/12/23 07:12:58;;;;;;;4.80;3.22;;;;;;;;;;5024486;28;20419;-70
2023/12/23 07:15:26;;;;;;;4.55;2.90;;;;;;;;;;5022838;28;20473;-70
2023/12/23 07:17:53;;;;;;;4.47;3.00;;;;;;;;;;5025500;28;20449;-70
2023/12/23 07:20:20;;;;;;;6.07;3.25;;;;;;;;;;5013434;28;20906;-70
2023/12/23 07:22:48;;;;;;;5.07;3.03;;;;;;;;;;5021384;28;20415;-69
2023/12/23 07:25:15;;;;;;;5.65;3.13;;;;;;;;;;5018919;28;20439;-69
2023/12/23 07:27:42;;;;;;;5.78;3.00;;;;;;;;;;5020814;28;20881;-70
2023/12/23 07:30:10;;;;;;;5.60;3.20;;;;;;;;;;5022506;28;20422;-70
2023/12/23 07:32:38;;;;;;;7.25;3.40;;;;;;;;;;5022652;28;20437;-70
2023/12/23 07:35:05;;;;;;;6.07;3.67;;;;;;;;;;5022743;28;20795;-72
2023/12/23 07:37:33;;;;;;;7.57;3.90;;;;;;;;;;5021975;28;20415;-71
2023/12/23 07:40:03;;;;;;;7.10;3.85;;;;;;;;;;5019211;28;20431;-73
2023/12/23 07:42:30;;;;;;;6.70;4.03;;;;;;;;;;5022983;28;20616;-75
2023/12/23 07:44:58;;;;;;;8.02;4.20;;;;;;;;;;5022164;28;20823;-74
2023/12/23 07:47:25;;;;;;;7.40;4.55;;;;;;;;;;5027170;28;20717;-73
2023/12/23 07:49:53;;;;;;;6.10;4.30;;;;;;;;;;5021557;28;20442;-76
2023/12/23 07:52:20;;;;;;;8.43;4.90;;;;;;;;;;5020270;28;20411;-75
2023/12/23 07:54:47;;;;;;;5.13;4.10;;;;;;;;;;5022306;28;20430;-73
2023/12/23 07:57:14;;;;;;;5.70;4.50;;;;;;;;;;5017090;28;20429;-74
2023/12/23 07:59:41;;;;;;;9.18;4.60;;;;;;;;;;5018298;28;20427;-75
2023/12/23 08:02:08;;;;;;;8.37;4.87;;;;;;;;;;5020893;28;20544;-76
2023/12/23 08:04:35;;;;;;;7.47;4.32;;;;;;;;;;5023008;28;20411;-72
2023/12/23 08:07:04;;;;;;;7.63;4.22;;;;;;;;;;5024118;28;20533;-72
2023/12/23 08:09:31;;;;;;;6.55;4.30;;;;;;;;;;5023630;28;20423;-72
2023/12/23 08:11:58;;;;;;;6.68;4.20;;;;;;;;;;5052685;22;21037;-73
2023/12/23 08:14:25;;;;;;;5.72;4.15;;;;;;;;;;5044496;28;20417;-74
2023/12/23 08:16:53;;;;;;;6.78;4.10;;;;;;;;;;5044244;28;20421;-73
2023/12/23 08:19:20;;;;;;;7.53;4.20;;;;;;;;;;5038471;28;20413;-74
2023/12/23 08:21:47;;;;;;;7.82;5.38;;;;;;;;;;5039534;28;20786;-74
2023/12/23 08:24:15;;;;;;;6.82;4.60;;;;;;;;;;5044787;28;20413;-74
2023/12/23 08:26:42;;;;;;;7.47;4.63;;;;;;;;;;5045806;28;20457;-74
2023/12/23 08:29:10;;;;;;;8.68;5.25;;;;;;;;;;5046457;28;20825;-75
2023/12/23 08:31:43;;;;;;;6.72;4.70;;;;;;;;;;5045118;28;20792;-75
2023/12/23 08:34:10;;;;;;;8.30;5.10;;;;;;;;;;5045072;28;20406;-74
2023/12/23 08:36:37;;;;;;;8.80;5.68;;;;;;;;;;5046132;28;20413;-73
2023/12/23 08:39:04;;;;;;;11.82;5.97;;;;;;;;;;5045680;28;20417;-73
2023/12/23 08:41:35;;;;;;;8.55;5.05;;;;;;;;;;5046065;28;20433;-73
2023/12/23 08:44:02;;;;;;;11.75;5.55;;;;;;;;;;5046273;28;20425;-73
2023/12/23 08:46:29;;;;;;;11.15;4.95;;;;;;;;;;5043574;28;20801;-73
2023/12/23 08:48:56;;;;;;;8.32;5.50;;;;;;;;;;5044760;28;20413;-73
2023/12/23 08:51:23;;;;;;;9.10;4.85;;;;;;;;;;5048302;28;20420;-73
2023/12/23 08:53:50;;;;;;;9.40;4.57;;;;;;;;;;5050456;28;20428;-73
2023/12/23 08:56:17;;;;;;;6.53;4.80;;;;;;;;;;5048695;28;20417;-74
2023/12/23 08:58:45;;;;;;;9.32;5.03;;;;;;;;;;5050385;28;20413;-74
2023/12/23 09:01:12;;;;;;;6.82;4.43;;;;;;;;;;5050004;28;20552;-76
2023/12/23 09:03:40;;;;;;;7.47;4.38;;;;;;;;;;5048823;28;20942;-73
2023/12/23 09:06:07;;;;;;;8.95;3.70;;;;;;;;;;5048662;28;20436;-74
2023/12/23 09:08:34;;;;;;;8.40;4.20;;;;;;;;;;5049843;28;20811;-74
2023/12/23 09:11:03;;;;;;;6.07;3.55;;;;;;;;;;5049440;28;20412;-74
2023/12/23 09:13:30;;;;;;;8.30;3.60;;;;;;;;;;5050401;28;20483;-75
2023/12/23 09:16:00;;;;;;;9.70;3.50;;;;;;;;;;5049637;28;20898;-74
2023/12/23 09:18:27;;;;;;;7.72;3.85;;;;;;;;;;5048365;28;20911;-75
2023/12/23 09:20:54;;;;;;;9.13;3.42;;;;;;;;;;5049551;28;20434;-75
2023/12/23 09:23:21;;;;;;;6.00;3.20;;;;;;;;;;5042403;28;20729;-75
2023/12/23 09:25:48;;;;;;;6.05;3.10;;;;;;;;;;5049241;28;20773;-75
2023/12/23 09:28:17;;;;;;;10.65;3.60;;;;;;;;;;5049344;28;20604;-75
2023/12/23 09:30:44;;;;;;;7.50;2.95;;;;;;;;;;5049313;28;20479;-78
2023/12/23 09:33:12;;;;;;;5.10;2.60;;;;;;;;;;5048881;28;20413;-76
2023/12/23 09:35:39;;;;;;;7.13;3.00;;;;;;;;;;5050675;28;20850;-76
2023/12/23 09:38:06;;;;;;;6.80;3.20;;;;;;;;;;5049884;28;20963;-76
2023/12/23 09:40:33;;;;;;;7.13;3.20;;;;;;;;;;5048511;28;20437;-74
2023/12/23 09:43:00;;;;;;;6.15;2.63;;;;;;;;;;5049284;28;20413;-73
2023/12/23 09:45:28;;;;;;;4.95;2.70;;;;;;;;;;5049615;28;20424;-75
2023/12/23 09:47:55;;;;;;;5.93;2.80;;;;;;;;;;5048867;28;20417;-75
2023/12/23 09:50:23;;;;;;;4.50;2.60;;;;;;;;;;5049410;28;20918;-74
2023/12/23 09:52:52;;;;;;;7.22;2.80;;;;;;;;;;5049752;28;20417;-77
2023/12/23 09:55:19;;;;;;;5.88;2.67;;;;;;;;;;5049539;28;20429;-73
2023/12/23 09:57:47;;;;;;;6.15;2.90;;;;;;;;;;5048717;28;20859;-75
2023/12/23 10:00:14;;;;;;;5.10;2.65;;;;;;;;;;5049011;28;20756;-74
2023/12/23 10:02:41;;;;;;;5.63;2.90;;;;;;;;;;5047823;28;20450;-73
2023/12/23 10:05:09;;;;;;;6.15;2.63;;;;;;;;;;5048381;28;20416;-74
2023/12/23 10:07:39;;;;;;;5.05;2.60;;;;;;;;;;5048233;28;20414;-74
2023/12/23 10:10:06;;;;;;;5.20;2.40;;;;;;;;;;5048786;28;20467;-74
2023/12/23 10:12:33;;;;;;;7.82;2.38;;;;;;;;;;5048181;28;20416;-75
2023/12/23 10:15:00;;;;;;;5.60;2.60;;;;;;;;;;5048922;28;20413;-73
2023/12/23 10:17:27;;;;;;;5.22;2.60;;;;;;;;;;5047975;28;20417;-73
2023/12/23 10:19:55;;;;;;;7.53;2.88;;;;;;;;;;5048547;28;20792;-73
2023/12/23 10:22:22;;;;;;;4.57;2.60;;;;;;;;;;5043271;28;20416;-73
2023/12/23 10:24:51;;;;;;;4.90;2.80;;;;;;;;;;5048879;28;20413;-72
2023/12/23 10:27:18;;;;;;;5.40;2.72;;;;;;;;;;5047734;28;20417;-72
2023/12/23 10:29:46;;;;;;;5.32;3.22;;;;;;;;;;5048836;28;20444;-73
2023/12/23 10:32:13;;;;;;;6.43;3.10;;;;;;;;;;5046663;28;20415;-73
2023/12/23 10:34:44;;;;;;;6.43;3.50;;;;;;;;;;5047950;28;20417;-73
2023/12/23 10:37:11;;;;;;;6.63;4.05;;;;;;;;;;5047607;28;20421;-73
2023/12/23 10:39:42;;;;;;;6.70;4.22;;;;;;;;;;5048436;28;20419;-72
2023/12/23 10:42:11;;;;;;;7.35;3.83;;;;;;;;;;5047874;28;20460;-75
2023/12/23 10:44:39;;;;;;;6.85;3.60;;;;;;;;;;5048185;28;20444;-72
2023/12/23 10:47:07;;;;;;;5.20;3.67;;;;;;;;;;5046617;28;20413;-72
2023/12/23 10:49:35;;;;;;;7.20;3.80;;;;;;;;;;5047871;28;20423;-74
2023/12/23 10:52:02;;;;;;;6.55;3.63;;;;;;;;;;5048233;28;20474;-73
2023/12/23 10:54:29;;;;;;;5.72;3.70;;;;;;;;;;5048665;28;20425;-73
2023/12/23 10:56:58;;;;;;;5.22;3.65;;;;;;;;;;5047319;28;20789;-74
2023/12/23 10:59:26;;;;;;;6.32;3.15;;;;;;;;;;5040445;28;20420;-73
2023/12/23 11:01:54;;;;;;;6.68;3.50;;;;;;;;;;5046944;28;21139;-74
2023/12/23 11:04:22;;;;;;;6.95;3.40;;;;;;;;;;5041443;28;20940;-73
2023/12/23 11:06:52;;;;;;;5.90;3.60;;;;;;;;;;5042746;28;20916;-74
2023/12/23 11:09:20;;;;;;;5.63;3.00;;;;;;;;;;5047490;28;20471;-73
2023/12/23 11:11:47;;;;;;;6.03;3.20;;;;;;;;;;5047356;28;20409;-73
2023/12/23 11:14:14;;;;;;;5.90;3.40;;;;;;;;;;5041155;28;20856;-74
2023/12/23 11:16:43;;;;;;;4.63;2.90;;;;;;;;;;5047554;28;20467;-71
2023/12/23 11:19:10;;;;;;;4.93;2.90;;;;;;;;;;5047283;28;20409;-72
2023/12/23 11:21:37;;;;;;;6.07;3.30;;;;;;;;;;5047075;28;20429;-71
2023/12/23 11:24:25;;;;;;;4.15;2.65;;;;;;;;;;5047764;28;20417;-71
2023/12/23 11:26:54;;;;;;;4.95;3.53;;;;;;;;;;5046789;28;20473;-71
2023/12/23 11:29:22;;;;;;;6.70;3.20;;;;;;;;;;5047307;28;20931;-71
2023/12/23 11:31:50;;;;;;;6.10;3.50;;;;;;;;;;5046058;28;20417;-72
2023/12/23 11:34:18;;;;;;;5.35;2.80;;;;;;;;;;5041498;28;20781;-71
2023/12/23 11:36:45;;;;;;;5.40;3.10;;;;;;;;;;5047531;28;20428;-71
2023/12/23 11:39:13;;;;;;;7.47;2.97;;;;;;;;;;5046285;28;20604;-71
2023/12/23 11:41:43;;;;;;;3.92;2.70;;;;;;;;;;5046461;28;20558;-71
2023/12/23 11:44:12;;;;;;;5.55;2.65;;;;;;;;;;5044693;28;20425;-70
2023/12/23 11:46:40;;;;;;;4.13;2.60;;;;;;;;;;5040058;28;20433;-71
2023/12/23 11:49:09;;;;;;;5.05;2.95;;;;;;;;;;5045637;28;20421;-72
2023/12/23 11:51:38;;;;;;;5.38;3.10;;;;;;;;;;5042578;28;20424;-72
2023/12/23 11:54:05;;;;;;;4.22;2.67;;;;;;;;;;5046416;28;20423;-72
2023/12/23 11:56:32;;;;;;;5.65;3.10;;;;;;;;;;5045649;28;20410;-71
2023/12/23 11:59:01;;;;;;;5.50;2.90;;;;;;;;;;5046445;28;20413;-72
2023/12/23 12:01:32;;;;;;;5.43;3.28;;;;;;;;;;5042765;28;20432;-71
2023/12/23 12:03:59;;;;;;;5.07;3.20;;;;;;;;;;5041170;28;20417;-71
2023/12/23 12:06:27;;;;;;;4.57;2.60;;;;;;;;;;5038629;28;20413;-71
2023/12/23 12:08:55;;;;;;;4.65;3.00;;;;;;;;;;5046647;28;20420;-72
2023/12/23 12:11:24;;;;;;;5.90;3.13;;;;;;;;;;5046035;28;20413;-72
2023/12/23 12:13:51;;;;;;;6.70;3.57;;;;;;;;;;5045611;28;20493;-72
2023/12/23 12:16:19;;;;;;;6.00;3.08;;;;;;;;;;5045749;28;20413;-72
2023/12/23 12:18:49;;;;;;;4.97;2.83;;;;;;;;;;5045966;28;20425;-72
2023/12/23 12:21:16;;;;;;;4.78;2.60;;;;;;;;;;5046605;28;20874;-72
2023/12/23 12:23:44;;;;;;;5.10;2.58;;;;;;;;;;5046614;28;20424;-72
2023/12/23 12:26:11;;;;;;;7.28;2.40;;;;;;;;;;5045075;28;20421;-71
2023/12/23 12:28:38;;;;;;;5.78;2.75;;;;;;;;;;5046493;28;20428;-72
2023/12/23 12:31:09;;;;;;;5.85;3.05;;;;;;;;;;5045636;28;20432;-71
2023/12/23 12:33:37;;;;;;;3.38;1.80;;;;;;;;;;5045841;28;20413;-72
2023/12/23 12:36:09;;;;;;;5.90;2.30;;;;;;;;;;5046387;28;20439;-72
2023/12/23 12:38:35;;;;;;;6.18;2.35;;;;;;;;;;5046946;28;20490;-74
2023/12/23 12:41:02;;;;;;;4.32;1.90;;;;;;;;;;5044486;28;20433;-71
2023/12/23 12:43:31;;;;;;;6.60;2.03;;;;;;;;;;5046296;28;20436;-70
2023/12/23 12:45:58;;;;;;;3.08;1.60;;;;;;;;;;5045364;28;20452;-71
2023/12/23 12:48:25;;;;;;;2.67;1.60;;;;;;;;;;5037143;28;20406;-71
2023/12/23 12:50:53;;;;;;;2.58;1.70;;;;;;;;;;5046260;28;20409;-71
2023/12/23 12:53:22;;;;;;;5.25;1.95;;;;;;;;;;5045985;28;20989;-71
2023/12/23 12:55:49;;;;;;;5.30;1.70;;;;;;;;;;5043573;28;20407;-71
2023/12/23 12:58:18;;;;;;;4.90;1.60;;;;;;;;;;5044239;28;20900;-72
2023/12/23 13:00:45;;;;;;;3.47;1.80;;;;;;;;;;5045591;28;20425;-72
2023/12/23 13:03:13;;;;;;;4.57;1.70;;;;;;;;;;5043404;28;20461;-72
2023/12/23 13:05:40;;;;;;;3.30;1.70;;;;;;;;;;5046465;28;20902;-71
2023/12/23 13:08:07;;;;;;;4.90;1.70;;;;;;;;;;5045930;28;20409;-72
2023/12/23 13:10:36;;;;;;;3.50;1.60;;;;;;;;;;5045763;28;20458;-72
2023/12/23 13:13:03;;;;;;;3.70;1.60;;;;;;;;;;5042873;28;20426;-72
2023/12/23 13:15:30;;;;;;;3.90;1.30;;;;;;;;;;5046431;28;20413;-72
2023/12/23 13:17:59;;;;;;;3.05;1.70;;;;;;;;;;5039798;28;20445;-71
2023/12/23 13:20:26;;;;;;;3.05;1.30;;;;;;;;;;5039133;28;20421;-71
2023/12/23 13:22:53;;;;;;;3.73;1.20;;;;;;;;;;5045972;28;20429;-72
2023/12/23 13:25:20;;;;;;;3.58;1.50;;;;;;;;;;5040409;28;20425;-72
2023/12/23 13:27:49;;;;;;;2.42;1.30;;;;;;;;;;5045422;28;20900;-72
2023/12/23 13:30:16;;;;;;;3.67;1.55;;;;;;;;;;5045916;28;20424;-71
2023/12/23 13:32:43;;;;;;;2.80;1.50;;;;;;;;;;5045660;28;20847;-72
2023/12/23 13:35:11;;;;;;;3.47;1.50;;;;;;;;;;5045425;28;20902;-71
2023/12/23 13:37:40;;;;;;;3.78;1.75;;;;;;;;;;5045577;28;20482;-72
2023/12/23 13:40:07;;;;;;;3.22;1.50;;;;;;;;;;5048815;28;20444;-72
2023/12/23 13:42:34;;;;;;;5.15;1.60;;;;;;;;;;5047612;28;20429;-72
2023/12/23 13:45:03;;;;;;;3.58;1.70;;;;;;;;;;5048283;28;20432;-72
2023/12/23 13:47:30;;;;;;;4.50;1.70;;;;;;;;;;5047278;28;20985;-71
2023/12/23 13:49:58;;;;;;;2.85;1.60;;;;;;;;;;5048919;28;20765;-71
2023/12/23 13:52:25;;;;;;;5.25;1.63;;;;;;;;;;5049500;28;20410;-71
2023/12/23 13:54:52;;;;;;;3.42;1.90;;;;;;;;;;5048534;28;20416;-71
2023/12/23 13:57:19;;;;;;;4.10;1.77;;;;;;;;;;5047666;28;20433;-72
2023/12/23 13:59:47;;;;;;;3.15;1.73;;;;;;;;;;5048148;28;20421;-72
2023/12/23 14:02:15;;;;;;;4.65;2.05;;;;;;;;;;5047991;28;20429;-71
2023/12/23 14:04:42;;;;;;;2.73;2.10;;;;;;;;;;5047045;28;20518;-70
2023/12/23 14:07:09;;;;;;;5.47;2.78;;;;;;;;;;5048387;28;20413;-69
2023/12/23 14:09:37;;;;;;;3.28;2.50;;;;;;;;;;5051219;28;20439;-71
2023/12/23 14:12:04;;;;;;;3.90;1.80;;;;;;;;;;5047773;28;20409;-73
2023/12/23 14:14:31;;;;;;;2.97;1.80;;;;;;;;;;5046175;28;20422;-70
2023/12/23 14:16:59;;;;;;;3.03;2.00;;;;;;;;;;5041357;28;20484;-70
2023/12/23 14:19:27;;;;;;;3.55;1.60;;;;;;;;;;5047701;28;20500;-71
2023/12/23 14:21:55;;;;;;;2.97;1.80;;;;;;;;;;5048993;28;20425;-72
2023/12/23 14:24:22;;;;;;;3.50;1.90;;;;;;;;;;5047757;28;20431;-71
2023/12/23 14:26:49;;;;;;;3.33;1.73;;;;;;;;;;5048377;28;20425;-72
2023/12/23 14:29:16;;;;;;;3.40;1.80;;;;;;;;;;5047988;28;20413;-72
2023/12/23 14:31:43;;;;;;;2.22;1.40;;;;;;;;;;5048173;28;20416;-70
2023/12/23 14:34:10;;;;;;;6.40;1.70;;;;;;;;;;5046028;28;20429;-71
2023/12/23 14:36:38;;;;;;;2.45;1.80;;;;;;;;;;5042307;28;20442;-72
2023/12/23 14:39:05;;;;;;;6.00;1.80;;;;;;;;;;5048058;28;20912;-72
2023/12/23 14:41:32;;;;;;;6.00;1.60;;;;;;;;;;5041265;28;20433;-73
2023/12/23 14:43:59;;;;;;;5.88;3.60;;;;;;;;;;5042880;28;21120;-67